createdAt,value
2023-12-21T00:02:10.266Z,99.20
2023-12-21T00:04:36.734Z,98.43
2023-12-21T00:07:03.312Z,98.01
2023-12-21T00:09:29.920Z,97.71
2023-12-21T00:11:57.103Z,97.42
2023-12-21T00:14:25.017Z,97.86
2023-12-21T00:16:51.443Z,98.20
2023-12-21T00:19:18.109Z,97.72
2023-12-21T00:21:44.615Z,97.67
2023-12-21T00:24:11.024Z,97.45
2023-12-21T00:26:37.533Z,97.23
2023-12-21T00:29:03.947Z,96.86
2023-12-21T00:31:30.505Z,97.91
2023-12-21T00:33:57.086Z,97.52
2023-12-21T00:36:23.600Z,97.32
2023-12-21T00:38:49.966Z,96.59
2023-12-21T00:41:16.372Z,96.39
2023-12-21T00:43:42.940Z,96.26
2023-12-21T00:46:09.378Z,95.61
2023-12-21T00:48:35.934Z,95.46
2023-12-21T00:51:02.487Z,95.61
2023-12-21T00:53:28.903Z,95.80
2023-12-21T00:55:55.290Z,95.33
2023-12-21T00:58:21.855Z,95.89
2023-12-21T01:00:48.353Z,95.69
2023-12-21T01:03:14.798Z,95.78
2023-12-21T01:05:41.526Z,96.04
2023-12-21T01:08:08.270Z,96.54
2023-12-21T01:10:34.802Z,96.37
2023-12-21T01:13:01.644Z,96.75
2023-12-21T01:15:28.062Z,97.24
2023-12-21T01:17:54.641Z,96.58
2023-12-21T01:20:21.200Z,96.02
2023-12-21T01:22:47.617Z,96.46
2023-12-21T01:25:14.137Z,96.70
2023-12-21T01:27:40.513Z,96.58
2023-12-21T01:30:07.913Z,96.79
2023-12-21T01:32:34.400Z,97.17
2023-12-21T01:35:01.228Z,97.28
2023-12-21T01:37:27.805Z,97.43
2023-12-21T01:39:54.514Z,96.31
2023-12-21T01:42:21.063Z,96.94
2023-12-21T01:44:47.441Z,96.79
2023-12-21T01:47:13.937Z,96.88
2023-12-21T01:49:42.779Z,96.98
2023-12-21T01:52:10.313Z,96.79
2023-12-21T01:54:37.507Z,96.73
2023-12-21T01:57:04.132Z,96.93
2023-12-21T01:59:31.180Z,95.91
2023-12-21T02:01:57.683Z,96.14
2023-12-21T02:04:25.564Z,95.61
2023-12-21T02:06:52.080Z,95.61
2023-12-21T02:09:18.570Z,96.16
2023-12-21T02:11:47.208Z,96.14
2023-12-21T02:14:13.624Z,96.64
2023-12-21T02:16:48.140Z,96.31
2023-12-21T02:19:15.094Z,96.29
2023-12-21T02:21:43.786Z,97.08
2023-12-21T02:24:15.240Z,96.69
2023-12-21T02:26:43.087Z,96.72
2023-12-21T02:29:09.777Z,96.26
2023-12-21T02:31:37.385Z,96.70
2023-12-21T02:34:06.899Z,96.90
2023-12-21T02:36:34.088Z,96.78
2023-12-21T02:39:00.625Z,96.51
2023-12-21T02:41:27.029Z,96.52
2023-12-21T02:43:53.481Z,96.13
2023-12-21T02:46:20.986Z,96.93
2023-12-21T02:48:47.519Z,97.24
2023-12-21T02:51:14.008Z,96.38
2023-12-21T02:53:41.076Z,96.65
2023-12-21T02:56:07.624Z,96.51
2023-12-21T02:58:34.263Z,96.12
2023-12-21T03:01:02.324Z,95.64
2023-12-21T03:03:28.858Z,95.58
2023-12-21T03:05:55.323Z,96.17
2023-12-21T03:08:24.066Z,95.63
2023-12-21T03:10:50.917Z,96.42
2023-12-21T03:13:17.407Z,95.92
2023-12-21T03:15:43.889Z,95.97
2023-12-21T03:18:11.496Z,95.75
2023-12-21T03:20:37.911Z,96.39
2023-12-21T03:23:04.459Z,96.07
2023-12-21T03:25:31.304Z,96.20
2023-12-21T03:27:57.915Z,95.76
2023-12-21T03:30:24.319Z,96.12
2023-12-21T03:32:50.970Z,96.08
2023-12-21T03:35:17.614Z,96.17
2023-12-21T03:37:44.034Z,96.42
2023-12-21T03:40:10.747Z,97.30
2023-12-21T03:42:37.198Z,96.63
2023-12-21T03:45:04.308Z,96.50
2023-12-21T03:47:30.660Z,96.86
2023-12-21T03:49:57.179Z,97.23
2023-12-21T03:52:23.745Z,97.03
2023-12-21T03:54:50.170Z,96.78
2023-12-21T03:57:16.623Z,96.78
2023-12-21T03:59:43.060Z,96.95
2023-12-21T04:02:09.456Z,97.09
2023-12-21T04:04:37.067Z,96.85
2023-12-21T04:07:03.629Z,96.75
2023-12-21T04:09:30.075Z,96.84
2023-12-21T04:11:56.540Z,97.00
2023-12-21T04:14:22.937Z,97.82
2023-12-21T04:16:49.452Z,98.13
2023-12-21T04:19:15.913Z,97.47
2023-12-21T04:21:43.032Z,98.03
2023-12-21T04:24:09.477Z,98.29
2023-12-21T04:26:35.909Z,98.57
2023-12-21T04:29:02.384Z,97.96
2023-12-21T04:31:28.771Z,97.74
2023-12-21T04:33:55.416Z,97.55
2023-12-21T04:36:25.451Z,97.82
2023-12-21T04:38:53.664Z,97.58
2023-12-21T04:41:21.220Z,98.14
2023-12-21T04:43:47.835Z,97.38
2023-12-21T04:46:14.287Z,97.29
2023-12-21T04:48:40.811Z,97.74
2023-12-21T04:51:07.290Z,97.89
2023-12-21T04:53:33.723Z,98.01
2023-12-21T04:56:04.039Z,98.45
2023-12-21T04:58:30.430Z,98.00
2023-12-21T05:00:56.859Z,97.99
2023-12-21T05:03:23.326Z,98.43
2023-12-21T05:05:50.444Z,97.99
2023-12-21T05:08:16.904Z,98.39
2023-12-21T05:10:43.388Z,98.59
2023-12-21T05:13:09.883Z,98.62
2023-12-21T05:15:36.375Z,98.90
2023-12-21T05:18:02.930Z,98.97
2023-12-21T05:20:30.246Z,99.51
2023-12-21T05:23:00.331Z,98.94
2023-12-21T05:25:27.709Z,98.47
2023-12-21T05:27:54.590Z,98.56
2023-12-21T05:30:21.581Z,98.86
2023-12-21T05:32:48.362Z,97.99
2023-12-21T05:35:15.193Z,98.87
2023-12-21T05:37:41.980Z,98.55
2023-12-21T05:40:10.931Z,98.90
2023-12-21T05:42:37.400Z,98.16
2023-12-21T05:45:04.125Z,98.40
2023-12-21T05:47:32.801Z,98.71
2023-12-21T05:49:59.728Z,98.25
2023-12-21T05:52:26.902Z,98.27
2023-12-21T05:54:53.516Z,98.41
2023-12-21T05:57:19.983Z,99.11
2023-12-21T05:59:46.471Z,99.20
2023-12-21T06:02:13.042Z,97.98
2023-12-21T06:04:39.570Z,98.67
2023-12-21T06:07:06.138Z,98.45
2023-12-21T06:09:32.598Z,98.70
2023-12-21T06:11:58.998Z,98.66
2023-12-21T06:14:25.440Z,98.09
2023-12-21T06:16:51.809Z,98.69
2023-12-21T06:19:18.368Z,99.07
2023-12-21T06:21:44.969Z,98.42
2023-12-21T06:24:11.405Z,98.70
2023-12-21T06:26:41.651Z,99.45
2023-12-21T06:29:08.479Z,99.49
2023-12-21T06:31:36.386Z,99.25
2023-12-21T06:34:03.411Z,99.23
2023-12-21T06:36:30.307Z,98.32
2023-12-21T06:38:56.680Z,99.11
2023-12-21T06:41:23.204Z,98.38
2023-12-21T06:43:49.906Z,99.22
2023-12-21T06:46:16.759Z,99.03
2023-12-21T06:48:43.456Z,99.03
2023-12-21T06:51:10.012Z,99.08
2023-12-21T06:53:36.425Z,98.67
2023-12-21T06:56:17.694Z,98.23
2023-12-21T06:58:49.475Z,98.63
2023-12-21T07:01:15.977Z,98.85
2023-12-21T07:03:42.671Z,98.89
2023-12-21T07:06:12.238Z,99.22
2023-12-21T07:08:38.734Z,98.99
2023-12-21T07:11:05.213Z,99.02
2023-12-21T07:13:31.899Z,99.31
2023-12-21T07:15:58.550Z,99.04
2023-12-21T07:18:25.111Z,99.00
2023-12-21T07:20:51.618Z,99.33
2023-12-21T07:23:18.198Z,98.89
2023-12-21T07:25:44.764Z,99.06
2023-12-21T07:28:11.266Z,99.11
2023-12-21T07:30:37.733Z,99.99
2023-12-21T07:33:06.413Z,99.79
2023-12-21T07:35:33.112Z,98.48
2023-12-21T07:37:59.461Z,98.30
2023-12-21T07:40:25.952Z,98.84
2023-12-21T07:42:52.480Z,99.10
2023-12-21T07:45:18.963Z,99.09
2023-12-21T07:47:45.397Z,99.05
2023-12-21T07:50:11.768Z,99.35
2023-12-21T07:52:39.207Z,98.77
2023-12-21T07:55:06.646Z,99.03
2023-12-21T07:57:33.487Z,99.47
2023-12-21T08:00:00.262Z,99.42
2023-12-21T08:02:26.952Z,99.21
2023-12-21T08:04:53.513Z,99.10
2023-12-21T08:07:19.949Z,99.26
2023-12-21T08:09:46.373Z,99.46
2023-12-21T08:12:15.540Z,99.02
2023-12-21T08:14:42.269Z,98.77
2023-12-21T08:17:11.358Z,98.92
2023-12-21T08:19:38.602Z,99.95
2023-12-21T08:22:05.957Z,99.61
2023-12-21T08:24:32.734Z,99.29
2023-12-21T08:26:59.753Z,99.10
2023-12-21T08:29:26.220Z,99.10
2023-12-21T08:31:52.677Z,99.46
2023-12-21T08:34:19.371Z,98.83
2023-12-21T08:36:45.817Z,98.87
2023-12-21T08:39:12.386Z,98.64
2023-12-21T08:41:38.730Z,98.85
2023-12-21T08:44:05.187Z,98.71
2023-12-21T08:46:31.570Z,98.68
2023-12-21T08:48:58.424Z,98.39
2023-12-21T08:51:25.006Z,97.71
2023-12-21T08:53:51.474Z,98.54
2023-12-21T08:56:18.070Z,97.94
2023-12-21T08:58:44.543Z,98.26
2023-12-21T09:01:11.678Z,99.28
2023-12-21T09:03:38.268Z,98.62
2023-12-21T09:06:05.221Z,98.04
2023-12-21T09:08:31.718Z,98.64
2023-12-21T09:10:58.141Z,98.33
2023-12-21T09:13:24.608Z,98.33
2023-12-21T09:15:51.167Z,98.40
2023-12-21T09:18:17.699Z,98.36
2023-12-21T09:20:44.199Z,98.95
2023-12-21T09:23:10.561Z,98.80
2023-12-21T09:25:37.055Z,98.79
2023-12-21T09:28:04.364Z,99.41
2023-12-21T09:30:31.772Z,99.34
2023-12-21T09:33:01.802Z,99.39
2023-12-21T09:35:28.467Z,100.00
2023-12-21T09:37:54.929Z,100.00
2023-12-21T09:40:21.553Z,100.00
2023-12-21T09:43:01.140Z,99.74
2023-12-21T09:45:32.369Z,99.80
2023-12-21T09:47:59.964Z,99.71
2023-12-21T09:50:27.796Z,99.42
2023-12-21T09:52:55.170Z,99.63
2023-12-21T09:55:23.450Z,99.95
2023-12-21T09:57:51.453Z,100.00
2023-12-21T10:00:18.320Z,100.00
2023-12-21T10:02:44.745Z,100.00
2023-12-21T10:05:12.477Z,100.00
2023-12-21T10:07:40.723Z,100.00
2023-12-21T10:10:07.773Z,100.00
2023-12-21T10:12:34.474Z,100.00
2023-12-21T10:15:00.957Z,100.00
2023-12-21T10:17:27.402Z,100.00
2023-12-21T10:19:53.833Z,100.00
2023-12-21T10:22:20.532Z,100.00
2023-12-21T10:24:52.020Z,100.00
2023-12-21T10:27:19.795Z,100.00
2023-12-21T10:29:54.279Z,100.00
2023-12-21T10:32:21.610Z,99.81
2023-12-21T10:34:48.747Z,99.84
2023-12-21T10:37:18.471Z,100.00
2023-12-21T10:39:45.304Z,100.00
2023-12-21T10:42:14.688Z,100.00
2023-12-21T10:44:45.609Z,100.00
2023-12-21T10:47:13.431Z,100.00
2023-12-21T10:49:41.522Z,100.00
2023-12-21T10:52:08.569Z,100.00
2023-12-21T10:54:37.237Z,100.00
2023-12-21T10:57:05.546Z,100.00
2023-12-21T10:59:33.500Z,100.00
2023-12-21T11:02:00.820Z,100.00
2023-12-21T11:04:29.023Z,100.00
2023-12-21T11:06:55.930Z,99.73
2023-12-21T11:09:27.899Z,100.00
2023-12-21T11:11:58.543Z,99.80
2023-12-21T11:14:25.598Z,99.75
2023-12-21T11:17:01.349Z,99.83
2023-12-21T11:19:36.896Z,99.43
2023-12-21T11:22:05.241Z,99.08
2023-12-21T11:24:31.864Z,99.15
2023-12-21T11:27:00.394Z,99.01
2023-12-21T11:29:29.623Z,98.76
2023-12-21T11:31:57.148Z,98.45
2023-12-21T11:34:35.764Z,97.93
2023-12-21T11:37:27.811Z,97.07
2023-12-21T11:40:00.850Z,97.31
2023-12-21T11:42:37.521Z,97.02
2023-12-21T11:45:07.782Z,93.00
2023-12-21T11:47:34.448Z,91.92
2023-12-21T11:50:20.711Z,88.98
2023-12-21T11:52:52.420Z,88.46
2023-12-21T11:55:26.487Z,88.88
2023-12-21T11:58:20.632Z,89.16
2023-12-21T12:00:50.590Z,89.65
2023-12-21T12:03:18.919Z,89.04
2023-12-21T12:05:46.183Z,90.18
2023-12-21T12:08:12.866Z,90.43
2023-12-21T12:10:39.610Z,91.24
2023-12-21T12:13:07.109Z,92.23
2023-12-21T12:15:36.017Z,91.72
2023-12-21T12:18:09.055Z,91.99
2023-12-21T12:20:42.426Z,91.03
2023-12-21T12:23:09.146Z,91.05
2023-12-21T12:25:43.025Z,91.50
2023-12-21T12:28:13.714Z,89.46
2023-12-21T12:30:42.453Z,89.47
2023-12-21T12:33:09.899Z,89.49
2023-12-21T12:35:40.200Z,89.68
2023-12-21T12:38:07.919Z,89.51
2023-12-21T12:40:35.718Z,89.29
2023-12-21T12:43:02.810Z,88.35
2023-12-21T12:45:30.743Z,88.34
2023-12-21T12:47:57.480Z,89.28
2023-12-21T12:50:27.667Z,88.97
2023-12-21T12:52:54.195Z,88.27
2023-12-21T12:55:22.109Z,87.57
2023-12-21T12:57:51.496Z,86.96
2023-12-21T13:00:21.306Z,86.97
2023-12-21T13:02:48.443Z,88.11
2023-12-21T13:05:18.218Z,88.17
2023-12-21T13:07:44.794Z,87.96
2023-12-21T13:10:15.403Z,89.65
2023-12-21T13:12:43.705Z,88.18
2023-12-21T13:15:12.525Z,87.69
2023-12-21T13:17:39.065Z,86.67
2023-12-21T13:20:10.795Z,87.06
2023-12-21T13:22:37.980Z,87.71
2023-12-21T13:25:05.151Z,87.74
2023-12-21T13:27:32.895Z,88.22
2023-12-21T13:29:59.293Z,88.44
2023-12-21T13:32:26.159Z,89.10
2023-12-21T13:34:52.777Z,89.32
2023-12-21T13:37:19.386Z,88.85
2023-12-21T13:39:49.754Z,88.50
2023-12-21T13:42:16.958Z,88.08
2023-12-21T13:44:44.046Z,88.25
2023-12-21T13:47:10.756Z,88.33
2023-12-21T13:49:37.303Z,88.42
2023-12-21T13:52:03.990Z,87.90
2023-12-21T13:54:30.392Z,87.85
2023-12-21T13:57:06.874Z,87.76
2023-12-21T13:59:37.815Z,88.42
2023-12-21T14:02:04.522Z,88.64
2023-12-21T14:04:31.233Z,88.70
2023-12-21T14:06:58.405Z,89.45
2023-12-21T14:09:25.575Z,89.89
2023-12-21T14:11:52.175Z,90.41
2023-12-21T14:14:18.611Z,89.64
2023-12-21T14:16:45.074Z,90.23
2023-12-21T14:19:12.435Z,90.07
2023-12-21T14:21:38.947Z,90.58
2023-12-21T14:24:05.829Z,89.06
2023-12-21T14:26:32.219Z,89.64
2023-12-21T14:28:58.620Z,88.79
2023-12-21T14:31:25.292Z,89.32
2023-12-21T14:33:52.181Z,88.80
2023-12-21T14:36:19.447Z,88.15
2023-12-21T14:38:46.010Z,88.95
2023-12-21T14:41:12.659Z,88.06
2023-12-21T14:43:39.725Z,86.96
2023-12-21T14:46:06.448Z,85.61
2023-12-21T14:48:33.086Z,84.15
2023-12-21T14:50:59.492Z,83.99
2023-12-21T14:53:25.936Z,84.90
2023-12-21T14:55:52.693Z,84.24
2023-12-21T14:58:19.319Z,83.77
2023-12-21T15:00:46.063Z,83.82
2023-12-21T15:03:12.814Z,83.65
2023-12-21T15:05:39.369Z,83.05
2023-12-21T15:08:08.645Z,83.53
2023-12-21T15:10:37.215Z,84.06
2023-12-21T15:13:07.482Z,83.54
2023-12-21T15:15:34.262Z,84.57
2023-12-21T15:18:00.837Z,86.96
2023-12-21T15:20:27.345Z,86.46
2023-12-21T15:22:53.855Z,87.68
2023-12-21T15:25:21.094Z,86.73
2023-12-21T15:27:47.911Z,86.39
2023-12-21T15:30:14.801Z,85.99
2023-12-21T15:32:41.285Z,86.38
2023-12-21T15:35:08.313Z,85.24
2023-12-21T15:37:34.835Z,83.83
2023-12-21T15:40:01.378Z,83.47
2023-12-21T15:42:27.709Z,83.05
2023-12-21T15:44:54.137Z,82.49
2023-12-21T15:47:20.518Z,81.31
2023-12-21T15:49:46.981Z,81.50
2023-12-21T15:52:13.532Z,82.36
2023-12-21T15:54:39.986Z,82.14
2023-12-21T15:57:06.437Z,81.98
2023-12-21T15:59:35.922Z,81.53
2023-12-21T16:02:03.870Z,81.56
2023-12-21T16:04:32.126Z,82.00
2023-12-21T16:07:00.441Z,81.52
2023-12-21T16:09:29.844Z,82.62
2023-12-21T16:11:56.261Z,82.07
2023-12-21T16:14:22.657Z,81.17
2023-12-21T16:16:49.221Z,79.78
2023-12-21T16:19:15.860Z,78.09
2023-12-21T16:21:42.509Z,78.24
2023-12-21T16:24:11.059Z,78.54
2023-12-21T16:26:41.129Z,78.00
2023-12-21T16:29:07.906Z,76.75
2023-12-21T16:31:34.683Z,76.55
2023-12-21T16:34:01.198Z,76.34
2023-12-21T16:36:27.779Z,75.72
2023-12-21T16:38:54.242Z,75.47
2023-12-21T16:41:20.668Z,76.43
2023-12-21T16:43:47.283Z,75.76
2023-12-21T16:46:15.016Z,76.55
2023-12-21T16:48:41.626Z,76.63
2023-12-21T16:51:10.390Z,77.35
2023-12-21T16:53:38.336Z,77.66
2023-12-21T16:56:05.050Z,77.31
2023-12-21T16:58:31.589Z,76.93
2023-12-21T17:00:58.087Z,77.49
2023-12-21T17:03:25.373Z,77.46
2023-12-21T17:05:51.912Z,77.45
2023-12-21T17:08:18.456Z,77.97
2023-12-21T17:10:44.888Z,77.71
2023-12-21T17:13:11.525Z,77.41
2023-12-21T17:15:37.992Z,77.24
2023-12-21T17:18:04.947Z,77.06
2023-12-21T17:20:33.997Z,76.46
2023-12-21T17:23:02.420Z,76.24
2023-12-21T17:25:28.981Z,75.40
2023-12-21T17:27:57.438Z,76.00
2023-12-21T17:30:25.941Z,76.35
2023-12-21T17:32:53.057Z,77.62
2023-12-21T17:35:19.650Z,77.95
2023-12-21T17:37:46.413Z,76.97
2023-12-21T17:40:15.969Z,77.41
2023-12-21T17:42:43.368Z,77.20
2023-12-21T17:45:10.847Z,77.02
2023-12-21T17:47:37.866Z,77.38
2023-12-21T17:50:05.362Z,77.88
2023-12-21T17:52:33.391Z,77.86
2023-12-21T17:54:59.875Z,77.64
2023-12-21T17:57:26.302Z,77.85
2023-12-21T17:59:53.733Z,78.37
2023-12-21T18:02:21.150Z,76.73
2023-12-21T18:04:50.149Z,77.10
2023-12-21T18:07:16.685Z,76.43
2023-12-21T18:09:43.171Z,76.15
2023-12-21T18:12:09.818Z,76.35
2023-12-21T18:14:36.296Z,77.74
2023-12-21T18:17:02.729Z,79.78
2023-12-21T18:19:29.250Z,80.92
2023-12-21T18:21:56.023Z,81.14
2023-12-21T18:24:24.305Z,82.00
2023-12-21T18:26:50.712Z,82.51
2023-12-21T18:29:17.324Z,83.03
2023-12-21T18:31:43.713Z,82.01
2023-12-21T18:34:10.594Z,82.11
2023-12-21T18:36:37.244Z,81.31
2023-12-21T18:39:04.985Z,81.86
2023-12-21T18:41:31.436Z,81.89
2023-12-21T18:43:59.518Z,80.55
2023-12-21T18:46:25.967Z,79.94
2023-12-21T18:48:52.952Z,78.54
2023-12-21T18:51:19.393Z,76.34
2023-12-21T18:53:45.737Z,73.72
2023-12-21T18:56:13.260Z,73.42
2023-12-21T18:58:39.670Z,72.02
2023-12-21T19:01:06.069Z,72.55
2023-12-21T19:03:35.349Z,72.25
2023-12-21T19:06:01.879Z,72.27
2023-12-21T19:08:28.346Z,73.70
2023-12-21T19:10:56.761Z,72.83
2023-12-21T19:13:23.417Z,72.70
2023-12-21T19:15:49.837Z,72.49
2023-12-21T19:18:16.714Z,74.47
2023-12-21T19:20:45.654Z,74.55
2023-12-21T19:23:13.279Z,74.98
2023-12-21T19:25:39.724Z,75.54
2023-12-21T19:28:06.251Z,75.79
2023-12-21T19:30:32.685Z,76.25
2023-12-21T19:33:02.458Z,76.26
2023-12-21T19:35:28.879Z,77.35
2023-12-21T19:37:55.355Z,76.63
2023-12-21T19:40:21.746Z,75.56
2023-12-21T19:42:48.113Z,74.23
2023-12-21T19:45:14.671Z,73.46
2023-12-21T19:47:41.128Z,73.55
2023-12-21T19:50:07.992Z,73.22
2023-12-21T19:52:34.560Z,73.77
2023-12-21T19:55:01.102Z,74.07
2023-12-21T19:57:27.519Z,74.41
2023-12-21T19:59:55.523Z,74.33
2023-12-21T20:02:21.909Z,75.01
2023-12-21T20:04:48.442Z,74.61
2023-12-21T20:07:14.983Z,74.29
2023-12-21T20:09:41.360Z,73.79
2023-12-21T20:12:08.141Z,74.49
2023-12-21T20:14:34.574Z,74.42
2023-12-21T20:17:01.034Z,74.23
2023-12-21T20:19:28.113Z,75.32
2023-12-21T20:21:54.798Z,75.10
2023-12-21T20:24:22.572Z,75.19
2023-12-21T20:26:49.007Z,75.47
2023-12-21T20:29:15.570Z,75.20
2023-12-21T20:31:42.032Z,74.17
2023-12-21T20:34:12.999Z,73.96
2023-12-21T20:36:40.141Z,73.52
2023-12-21T20:39:07.637Z,73.94
2023-12-21T20:41:34.418Z,73.49
2023-12-21T20:44:00.855Z,73.41
2023-12-21T20:46:27.299Z,70.99
2023-12-21T20:48:53.716Z,67.34
2023-12-21T20:51:20.122Z,66.42
2023-12-21T20:53:46.533Z,66.47
2023-12-21T20:56:12.977Z,67.29
2023-12-21T20:58:39.394Z,67.39
2023-12-21T21:01:06.108Z,67.17
2023-12-21T21:03:37.710Z,66.52
2023-12-21T21:06:05.573Z,67.22
2023-12-21T21:08:32.039Z,71.34
2023-12-21T21:10:59.117Z,74.08
2023-12-21T21:13:25.597Z,74.50
2023-12-21T21:15:52.089Z,74.56
2023-12-21T21:18:18.581Z,75.10
2023-12-21T21:20:46.216Z,74.08
2023-12-21T21:23:12.655Z,70.92
2023-12-21T21:25:39.123Z,69.58
2023-12-21T21:28:05.673Z,71.05
2023-12-21T21:30:55.760Z,72.18
2023-12-21T21:33:18.559Z,73.13
2023-12-21T21:35:45.063Z,74.92
2023-12-21T21:38:11.503Z,75.99
2023-12-21T21:40:37.994Z,76.16
2023-12-21T21:43:04.475Z,76.01
2023-12-21T21:45:31.330Z,76.71
2023-12-21T21:47:57.866Z,78.66
2023-12-21T21:50:24.246Z,79.88
2023-12-21T21:52:51.048Z,79.76
2023-12-21T21:55:17.490Z,79.19
2023-12-21T21:57:43.958Z,78.36
2023-12-21T22:00:10.985Z,77.59
2023-12-21T22:02:37.467Z,77.39
2023-12-21T22:05:04.233Z,76.63
2023-12-21T22:07:30.796Z,75.57
2023-12-21T22:09:57.233Z,75.84
2023-12-21T22:12:23.624Z,73.79
2023-12-21T22:14:50.135Z,71.63
2023-12-21T22:17:16.637Z,69.11
2023-12-21T22:19:43.108Z,67.45
2023-12-21T22:22:10.035Z,66.66
2023-12-21T22:24:36.436Z,66.47
2023-12-21T22:27:02.887Z,66.51
2023-12-21T22:29:29.289Z,65.86
2023-12-21T22:31:55.682Z,65.44
2023-12-21T22:34:22.146Z,66.19
2023-12-21T22:36:48.609Z,66.55
2023-12-21T22:39:14.980Z,67.28
2023-12-21T22:41:41.408Z,66.03
2023-12-21T22:44:07.828Z,65.19
2023-12-21T22:46:34.354Z,66.30
2023-12-21T22:49:00.890Z,66.78
2023-12-21T22:51:27.355Z,65.50
2023-12-21T22:53:53.724Z,64.08
2023-12-21T22:56:20.286Z,63.96
2023-12-21T22:58:47.051Z,63.68
2023-12-21T23:01:19.201Z,63.77
2023-12-21T23:03:46.092Z,64.47
2023-12-21T23:06:12.541Z,64.30
2023-12-21T23:08:39.665Z,64.04
2023-12-21T23:11:06.189Z,64.81
2023-12-21T23:13:32.627Z,63.99
2023-12-21T23:16:01.065Z,64.96
2023-12-21T23:18:27.539Z,65.25
2023-12-21T23:20:54.047Z,65.27
2023-12-21T23:23:20.465Z,66.36
2023-12-21T23:25:46.977Z,65.09
2023-12-21T23:28:13.451Z,65.81
2023-12-21T23:30:39.950Z,66.26
2023-12-21T23:33:06.458Z,65.79
2023-12-21T23:35:32.930Z,66.06
2023-12-21T23:37:59.472Z,66.40
2023-12-21T23:40:26.611Z,66.96
2023-12-21T23:42:53.172Z,66.54
2023-12-21T23:45:19.855Z,67.73
2023-12-21T23:47:46.455Z,67.67
2023-12-21T23:50:13.090Z,67.27
2023-12-21T23:52:39.809Z,68.03
2023-12-21T23:55:06.822Z,67.19
2023-12-21T23:57:33.210Z,67.10
2023-12-21T23:59:59.614Z,67.12
